Time;durP1;ratioP1;P1;durP2;ratioP2;P2;SDS_P1;SDS_P2;PMS_P1;PMS_P2;Temp;Humidity;BMP_temperature;BMP_pressure;BME280_temperature;BME280_humidity;BME280_pressure;Samples;Min_cycle;Max_cycle;Signal;HPM_P1;HPM_P2
2022/06/30 00:02:01;;;;;;;10.03;6.13;;;21.90;68.90;;;;;;5012470;28;20190;-89
2022/06/30 00:04:27;;;;;;;13.50;7.13;;;21.90;69.20;;;;;;4999084;28;20202;-91
2022/06/30 00:06:53;;;;;;;14.33;9.00;;;21.80;69.20;;;;;;5033187;28;20446;-89
2022/06/30 00:09:19;;;;;;;10.00;8.80;;;21.80;68.80;;;;;;5020168;28;20183;-89
2022/06/30 00:11:45;;;;;;;12.93;8.77;;;21.70;68.70;;;;;;5012783;28;20194;-89
2022/06/30 00:14:10;;;;;;;10.90;8.80;;;21.50;68.60;;;;;;5013349;28;20422;-89
2022/06/30 00:16:36;;;;;;;15.43;9.23;;;21.50;68.40;;;;;;5002440;28;20215;-89
2022/06/30 00:19:02;;;;;;;11.43;7.73;;;21.40;68.40;;;;;;5033185;28;20201;-89
2022/06/30 00:21:28;;;;;;;9.43;7.10;;;21.30;68.20;;;;;;5017646;28;20178;-89
2022/06/30 00:23:53;;;;;;;8.83;6.60;;;21.20;67.90;;;;;;5032222;28;20469;-89
2022/06/30 00:26:19;;;;;;;10.30;6.23;;;21.20;67.80;;;;;;5022404;28;20181;-89
2022/06/30 00:28:46;;;;;;;13.73;6.27;;;21.10;67.40;;;;;;5053409;28;20225;-89
2022/06/30 00:31:12;;;;;;;6.17;5.50;;;21.10;67.30;;;;;;5039497;28;20218;-89
2022/06/30 00:33:38;;;;;;;10.23;4.83;;;21.00;67.00;;;;;;5010077;28;20465;-90
2022/06/30 00:36:04;;;;;;;9.13;4.90;;;20.90;67.10;;;;;;5010918;28;20475;-89
2022/06/30 00:38:32;;;;;;;8.00;5.73;;;20.90;67.20;;;;;;5053397;28;20178;-89
2022/06/30 00:40:57;;;;;;;10.17;5.70;;;20.80;67.10;;;;;;5016410;28;20504;-92
2022/06/30 00:43:23;;;;;;;9.97;5.10;;;20.80;67.00;;;;;;5016331;28;20909;-92
2022/06/30 00:45:49;;;;;;;7.43;5.50;;;20.80;67.10;;;;;;5035719;28;20183;-91
2022/06/30 00:48:16;;;;;;;7.80;5.30;;;20.80;66.80;;;;;;5055733;28;20264;-91
2022/06/30 00:50:42;;;;;;;9.50;5.00;;;20.70;66.70;;;;;;5056411;28;20416;-91
2022/06/30 00:53:09;;;;;;;9.20;5.57;;;20.80;66.80;;;;;;5039709;28;20268;-90
2022/06/30 00:55:41;;;;;;;8.17;4.90;;;20.80;66.70;;;;;;5035459;28;20432;-89
2022/06/30 00:58:09;;;;;;;7.10;4.30;;;20.70;66.60;;;;;;5034836;28;20988;-89
2022/06/30 01:00:41;;;;;;;6.70;4.23;;;20.70;66.40;;;;;;5050741;28;20425;-91
2022/06/30 01:03:09;;;;;;;9.20;4.40;;;20.70;66.20;;;;;;5036471;28;20461;-90
2022/06/30 01:05:36;;;;;;;6.70;3.47;;;20.70;66.10;;;;;;5038882;28;20975;-89
2022/06/30 01:08:03;;;;;;;9.90;3.67;;;20.70;66.90;;;;;;5041232;28;20536;-90
2022/06/30 01:13:13;;;;;;;8.83;3.73;;;20.70;66.30;;;;;;5028794;28;20428;-89
2022/06/30 01:15:39;;;;;;;8.17;3.87;;;20.60;66.20;;;;;;5052193;28;20429;-90
2022/06/30 01:18:05;;;;;;;5.73;3.80;;;20.60;66.00;;;;;;5037094;28;20452;-89
2022/06/30 01:20:33;;;;;;;9.33;3.53;;;20.60;66.10;;;;;;5034938;28;20575;-89
2022/06/30 01:23:00;;;;;;;6.53;3.60;;;20.60;66.10;;;;;;5036590;28;20252;-89
2022/06/30 01:25:26;;;;;;;7.30;3.73;;;20.60;66.20;;;;;;5040026;28;20421;-91
2022/06/30 01:27:53;;;;;;;5.53;3.50;;;20.60;66.40;;;;;;5045337;28;20499;-91
2022/06/30 01:30:19;;;;;;;5.60;3.27;;;20.60;66.70;;;;;;5050817;28;20176;-91
2022/06/30 01:32:45;;;;;;;5.00;3.43;;;20.50;66.90;;;;;;5042073;28;20431;-91
2022/06/30 01:35:11;;;;;;;6.63;3.90;;;20.50;67.20;;;;;;5032700;28;20490;-91
2022/06/30 01:37:52;;;;;;;8.83;3.60;;;20.40;67.40;;;;;;5020310;28;20194;-90
2022/06/30 01:40:20;;;;;;;5.90;4.50;;;20.40;67.90;;;;;;5020594;28;20214;-89
2022/06/30 01:42:46;;;;;;;6.03;3.90;;;20.40;68.00;;;;;;5036141;28;20477;-91
2022/06/30 01:45:12;;;;;;;4.35;3.35;;;20.40;68.20;;;;;;5036345;28;20418;-91
2022/06/30 01:47:39;;;;;;;5.83;3.40;;;20.40;68.40;;;;;;5029933;28;20226;-91
2022/06/30 01:50:08;;;;;;;5.20;3.40;;;20.40;68.60;;;;;;5016498;28;20422;-91
2022/06/30 01:52:34;;;;;;;3.50;3.20;;;20.40;68.70;;;;;;5020642;28;20476;-91
2022/06/30 01:58:21;;;;;;;7.07;4.10;;;20.40;69.40;;;;;;5037331;28;20237;-91
2022/06/30 02:00:47;;;;;;;9.13;3.93;;;20.40;70.40;;;;;;5030998;28;20417;-91
2022/06/30 02:03:13;;;;;;;6.30;3.40;;;20.40;70.00;;;;;;5015882;28;20214;-92
2022/06/30 02:05:39;;;;;;;6.00;3.90;;;20.30;70.20;;;;;;5035630;28;20183;-91
2022/06/30 02:08:05;;;;;;;5.90;3.23;;;20.20;70.40;;;;;;5038052;28;20198;-92
2022/06/30 02:10:30;;;;;;;7.33;4.60;;;20.20;70.80;;;;;;5037466;28;20436;-92
2022/06/30 02:12:56;;;;;;;10.23;3.90;;;20.10;71.20;;;;;;5021261;28;20190;-90
2022/06/30 02:15:27;;;;;;;6.60;3.50;;;20.10;71.70;;;;;;5021693;28;20169;-91
2022/06/30 02:17:54;;;;;;;6.80;3.47;;;20.10;72.20;;;;;;5004233;28;20202;-91
2022/06/30 02:20:23;;;;;;;5.20;3.50;;;20.10;72.40;;;;;;5023384;28;20182;-91
2022/06/30 02:22:51;;;;;;;4.83;3.80;;;20.10;72.60;;;;;;5051033;28;20464;-92
2022/06/30 02:25:17;;;;;;;3.43;3.10;;;20.10;72.70;;;;;;5050193;28;20408;-91
2022/06/30 02:27:43;;;;;;;6.07;3.37;;;20.10;72.70;;;;;;5052294;28;20433;-92
2022/06/30 02:30:10;;;;;;;6.47;3.37;;;20.10;72.70;;;;;;5053176;28;20418;-91
2022/06/30 02:32:36;;;;;;;9.43;4.53;;;20.10;72.90;;;;;;5036313;28;20260;-92
2022/06/30 02:35:02;;;;;;;5.60;4.80;;;20.10;73.00;;;;;;5052395;28;20474;-92
2022/06/30 02:37:28;;;;;;;7.60;4.85;;;20.00;73.30;;;;;;5035015;28;20438;-89
2022/06/30 02:39:54;;;;;;;9.33;5.00;;;20.00;73.50;;;;;;5028061;28;20333;-89
2022/06/30 02:42:23;;;;;;;6.72;3.97;;;20.00;73.60;;;;;;5033561;28;20178;-90
2022/06/30 02:44:49;;;;;;;5.97;4.88;;;19.90;73.80;;;;;;5017986;28;20171;-89
2022/06/30 02:47:15;;;;;;;6.87;5.53;;;19.90;74.00;;;;;;5016916;28;20241;-90
2022/06/30 02:49:40;;;;;;;8.23;5.40;;;19.90;74.20;;;;;;5033884;28;20571;-90
2022/06/30 02:52:07;;;;;;;5.07;4.57;;;19.90;74.30;;;;;;5018097;28;20501;-90
2022/06/30 02:54:33;;;;;;;6.35;5.75;;;19.90;74.30;;;;;;5033362;28;20853;-90
2022/06/30 02:56:59;;;;;;;10.30;6.10;;;19.90;74.50;;;;;;5035443;28;20210;-89
2022/06/30 02:59:25;;;;;;;14.30;6.83;;;19.90;74.80;;;;;;5035010;28;20185;-90
2022/06/30 03:01:50;;;;;;;12.80;6.27;;;19.90;75.00;;;;;;5041497;28;20405;-89
2022/06/30 03:04:16;;;;;;;6.33;5.70;;;19.90;75.10;;;;;;5041031;28;20465;-89
2022/06/30 03:06:42;;;;;;;6.80;5.57;;;19.90;74.80;;;;;;5030349;28;20209;-89
2022/06/30 03:09:08;;;;;;;9.00;5.87;;;19.90;74.70;;;;;;5046430;28;20289;-90
2022/06/30 03:11:35;;;;;;;14.93;6.07;;;19.90;74.50;;;;;;5035331;28;20406;-89
2022/06/30 03:14:01;;;;;;;11.18;5.80;;;19.80;74.10;;;;;;5031966;28;20155;-88
2022/06/30 03:16:26;;;;;;;12.80;5.65;;;19.80;74.00;;;;;;5052011;28;20205;-90
2022/06/30 03:18:52;;;;;;;11.53;6.33;;;19.70;73.90;;;;;;5062790;28;20205;-91
2022/06/30 03:21:20;;;;;;;17.75;7.65;;;19.70;74.00;;;;;;5064393;28;20249;-91
2022/06/30 03:23:46;;;;;;;9.43;5.53;;;19.70;73.90;;;;;;5064979;28;20209;-91
2022/06/30 03:26:12;;;;;;;10.55;5.97;;;19.60;73.80;;;;;;5065219;28;20200;-90
2022/06/30 03:28:38;;;;;;;8.93;5.50;;;19.60;73.80;;;;;;5048253;28;20629;-91
2022/06/30 03:31:04;;;;;;;7.87;5.07;;;19.60;74.00;;;;;;5069586;28;20412;-91
2022/06/30 03:33:30;;;;;;;10.40;4.90;;;19.50;73.80;;;;;;5066576;28;20416;-90
2022/06/30 03:35:57;;;;;;;9.10;4.87;;;19.60;73.80;;;;;;5063051;28;20424;-90
2022/06/30 03:38:23;;;;;;;10.88;4.63;;;19.60;73.70;;;;;;5040765;28;20201;-91
2022/06/30 03:40:49;;;;;;;8.03;4.50;;;19.60;73.40;;;;;;5026202;28;20208;-90
2022/06/30 03:43:16;;;;;;;8.63;4.50;;;19.60;73.10;;;;;;5037154;28;20213;-90
2022/06/30 03:45:42;;;;;;;7.78;4.45;;;19.60;72.90;;;;;;5037787;28;20188;-91
2022/06/30 03:48:08;;;;;;;11.03;5.10;;;19.50;72.80;;;;;;5037531;28;20206;-90
2022/06/30 03:50:34;;;;;;;11.47;4.57;;;19.50;72.80;;;;;;5021243;28;20513;-91
2022/06/30 03:53:01;;;;;;;11.27;4.60;;;19.50;72.80;;;;;;5037015;28;20202;-90
2022/06/30 03:55:28;;;;;;;12.43;5.28;;;19.50;72.50;;;;;;5033415;28;20405;-91
2022/06/30 03:57:54;;;;;;;9.45;3.67;;;19.50;72.50;;;;;;5022197;28;20202;-91
2022/06/30 04:00:20;;;;;;;8.77;3.95;;;19.40;72.10;;;;;;5025393;28;20174;-92
2022/06/30 04:02:46;;;;;;;11.95;4.20;;;19.40;72.20;;;;;;5037054;28;20665;-91
2022/06/30 04:05:16;;;;;;;11.30;3.63;;;19.40;72.30;;;;;;5052185;28;20185;-91
2022/06/30 04:07:43;;;;;;;9.95;3.85;;;19.40;72.10;;;;;;5051311;28;20447;-91
2022/06/30 04:10:12;;;;;;;11.27;3.05;;;19.50;72.10;;;;;;5051766;28;20185;-90
2022/06/30 04:12:39;;;;;;;8.48;3.83;;;19.50;71.80;;;;;;5052521;28;20177;-92
2022/06/30 04:15:06;;;;;;;5.43;3.73;;;19.50;71.50;;;;;;5052143;28;20182;-92
2022/06/30 04:17:35;;;;;;;6.18;3.63;;;19.50;71.50;;;;;;5035624;28;21085;-92
2022/06/30 04:20:03;;;;;;;7.47;3.60;;;19.60;71.50;;;;;;5055516;28;20182;-92
2022/06/30 04:22:50;;;;;;;10.55;3.65;;;19.70;71.40;;;;;;5049238;28;20236;-91
2022/06/30 04:25:16;;;;;;;9.60;3.47;;;19.60;71.00;;;;;;5036992;28;20242;-91
2022/06/30 04:27:46;;;;;;;8.15;3.75;;;19.60;70.80;;;;;;5048971;28;20449;-91
2022/06/30 04:30:13;;;;;;;5.38;3.58;;;19.60;70.60;;;;;;5041499;28;20643;-91
2022/06/30 04:32:39;;;;;;;4.68;3.40;;;19.60;70.40;;;;;;5036998;28;20178;-91
2022/06/30 04:35:11;;;;;;;7.70;3.63;;;19.60;70.30;;;;;;5021644;28;20212;-91
2022/06/30 04:37:37;;;;;;;7.15;3.35;;;19.60;70.40;;;;;;5032976;28;20237;-91
2022/06/30 04:42:48;;;;;;;3.80;2.95;;;19.70;70.20;;;;;;5019891;28;20229;-91
2022/06/30 04:45:14;;;;;;;9.00;4.10;;;19.60;70.50;;;;;;5020500;28;20191;-91
2022/06/30 04:47:41;;;;;;;5.17;3.63;;;19.60;70.40;;;;;;5038085;28;20460;-91
2022/06/30 04:50:08;;;;;;;9.05;4.00;;;19.60;70.20;;;;;;5054396;28;20166;-91
2022/06/30 04:52:34;;;;;;;8.80;3.78;;;19.60;70.20;;;;;;5068171;28;20186;-92
2022/06/30 04:55:00;;;;;;;6.15;3.45;;;19.60;70.10;;;;;;5059265;28;20183;-91
2022/06/30 04:57:26;;;;;;;5.18;3.47;;;19.60;70.10;;;;;;5029064;28;20214;-91
2022/06/30 04:59:52;;;;;;;6.47;3.00;;;19.60;70.10;;;;;;5035668;28;20181;-90
2022/06/30 05:02:17;;;;;;;8.10;3.33;;;19.60;70.20;;;;;;5047909;28;20177;-90
2022/06/30 05:04:43;;;;;;;9.43;3.60;;;19.60;70.20;;;;;;5047218;28;20301;-90
2022/06/30 05:07:10;;;;;;;7.03;3.38;;;19.60;70.20;;;;;;5036509;28;20206;-90
2022/06/30 05:09:36;;;;;;;7.13;3.20;;;19.70;70.00;;;;;;5021759;28;20179;-90
2022/06/30 05:12:02;;;;;;;4.80;3.10;;;19.70;69.80;;;;;;5035953;28;20425;-90
2022/06/30 05:14:28;;;;;;;8.10;2.97;;;19.90;69.70;;;;;;5044850;28;20425;-91
2022/06/30 05:16:53;;;;;;;7.27;2.50;;;20.00;68.50;;;;;;5023724;28;20448;-90
2022/06/30 05:19:19;;;;;;;5.50;2.70;;;20.20;68.10;;;;;;5059368;28;20178;-92
2022/06/30 05:21:51;;;;;;;7.57;3.27;;;20.40;67.70;;;;;;5067523;28;20245;-92
2022/06/30 05:27:01;;;;;;;6.37;3.40;;;20.60;66.40;;;;;;5040520;28;20451;-92
2022/06/30 05:29:27;;;;;;;6.93;2.60;;;20.60;66.20;;;;;;5039455;28;20512;-92
2022/06/30 05:31:53;;;;;;;9.33;2.67;;;20.60;66.20;;;;;;5055970;28;20564;-92
2022/06/30 05:34:19;;;;;;;5.03;2.27;;;20.70;66.00;;;;;;5061040;28;20232;-92
2022/06/30 05:36:44;;;;;;;5.20;2.33;;;21.20;64.40;;;;;;5060730;28;20178;-93
2022/06/30 05:39:11;;;;;;;5.47;2.17;;;22.00;61.60;;;;;;5020486;28;20186;-94
2022/06/30 05:41:37;;;;;;;6.40;2.20;;;22.80;58.40;;;;;;5036737;28;20676;-93
2022/06/30 05:44:13;;;;;;;4.80;2.40;;;23.80;55.60;;;;;;5035231;28;20466;-93
2022/06/30 05:46:39;;;;;;;6.47;2.63;;;24.50;52.80;;;;;;5036524;28;20284;-91
2022/06/30 05:49:06;;;;;;;8.10;2.07;;;24.70;52.00;;;;;;5043074;28;20413;-93
2022/06/30 05:51:32;;;;;;;4.23;2.60;;;24.80;51.10;;;;;;5055895;28;20198;-92
2022/06/30 05:53:58;;;;;;;4.23;1.90;;;24.60;50.90;;;;;;5055950;28;20440;-92
2022/06/30 05:56:24;;;;;;;5.87;2.37;;;24.40;51.60;;;;;;5056030;28;20469;-92
2022/06/30 05:58:50;;;;;;;7.40;2.97;;;24.30;51.90;;;;;;5055866;28;20169;-92
2022/06/30 06:01:15;;;;;;;4.80;2.50;;;24.40;52.50;;;;;;5054810;28;20182;-94
2022/06/30 06:03:41;;;;;;;8.70;2.50;;;24.90;52.40;;;;;;5046550;28;20273;-94
2022/06/30 06:06:07;;;;;;;10.10;2.70;;;25.20;50.10;;;;;;5044608;28;20182;-94
2022/06/30 06:08:33;;;;;;;7.90;3.63;;;25.00;51.10;;;;;;5049334;28;20214;-93
2022/06/30 06:10:58;;;;;;;10.13;2.67;;;25.30;50.30;;;;;;5037424;28;20168;-95
2022/06/30 06:13:25;;;;;;;3.80;1.87;;;25.20;50.40;;;;;;5034258;28;20209;-94
2022/06/30 06:15:51;;;;;;;8.23;2.90;;;25.00;49.80;;;;;;5046166;28;20172;-93
2022/06/30 06:18:17;;;;;;;3.20;2.03;;;25.10;49.60;;;;;;5052639;28;20441;-93
2022/06/30 06:20:47;;;;;;;2.40;1.90;;;25.60;48.60;;;;;;5033770;28;20418;-92
2022/06/30 06:23:13;;;;;;;4.23;1.87;;;25.80;48.40;;;;;;5053031;28;20195;-93
2022/06/30 06:25:39;;;;;;;8.03;2.50;;;25.80;46.60;;;;;;5050210;28;20448;-93
2022/06/30 06:30:50;;;;;;;4.70;2.20;;;25.70;47.00;;;;;;5019177;28;20178;-92
2022/06/30 06:33:16;;;;;;;3.93;2.03;;;26.10;47.10;;;;;;5033847;28;20429;-91
2022/06/30 06:35:44;;;;;;;5.17;2.00;;;26.10;46.40;;;;;;5033409;28;20193;-92
2022/06/30 06:38:10;;;;;;;8.63;3.17;;;26.00;46.50;;;;;;5019364;28;20206;-91
2022/06/30 06:40:36;;;;;;;4.83;2.60;;;25.80;46.70;;;;;;5023758;28;20450;-91
2022/06/30 06:43:02;;;;;;;5.50;2.40;;;25.90;47.00;;;;;;5035540;28;20695;-91
2022/06/30 06:45:28;;;;;;;4.83;2.20;;;25.70;47.90;;;;;;5034431;28;20402;-90
2022/06/30 06:47:54;;;;;;;6.97;2.40;;;25.50;47.80;;;;;;5032387;28;20990;-90
2022/06/30 06:50:19;;;;;;;5.70;2.97;;;25.50;48.90;;;;;;5037228;28;20657;-90
2022/06/30 06:52:45;;;;;;;6.30;2.50;;;25.90;48.20;;;;;;5040225;28;20461;-90
2022/06/30 06:55:11;;;;;;;10.53;2.63;;;26.10;48.30;;;;;;5035129;28;20180;-91
2022/06/30 06:57:40;;;;;;;9.03;2.70;;;26.10;48.20;;;;;;5039462;28;20211;-92
2022/06/30 07:00:07;;;;;;;4.60;2.23;;;26.00;48.40;;;;;;5028293;28;20432;-92
2022/06/30 07:02:33;;;;;;;5.20;2.67;;;26.30;47.10;;;;;;5039187;28;20818;-92
2022/06/30 07:04:59;;;;;;;4.47;2.33;;;26.30;46.90;;;;;;5037769;28;20883;-92
2022/06/30 07:07:25;;;;;;;7.43;2.40;;;26.20;47.30;;;;;;5015698;28;20968;-92
2022/06/30 07:09:51;;;;;;;3.00;2.67;;;26.20;47.70;;;;;;5035723;28;20432;-92
2022/06/30 07:12:17;;;;;;;6.53;2.63;;;26.20;47.60;;;;;;5037461;28;20806;-91
2022/06/30 07:14:43;;;;;;;8.87;2.70;;;26.20;46.60;;;;;;5042915;28;20179;-92
2022/06/30 07:17:09;;;;;;;5.40;3.17;;;26.20;46.30;;;;;;5041505;28;20400;-91
2022/06/30 07:19:35;;;;;;;4.63;2.00;;;26.10;45.70;;;;;;5031952;28;20409;-91
2022/06/30 07:22:01;;;;;;;6.03;2.00;;;25.80;46.40;;;;;;5016607;28;20701;-91
2022/06/30 07:24:27;;;;;;;4.20;2.20;;;26.00;47.30;;;;;;5032647;28;20463;-91
2022/06/30 07:26:53;;;;;;;3.13;2.30;;;25.80;46.40;;;;;;5038915;28;20285;-92
2022/06/30 07:29:19;;;;;;;5.00;2.70;;;25.50;47.40;;;;;;5052389;28;20429;-92
2022/06/30 07:31:45;;;;;;;4.63;2.00;;;25.20;48.00;;;;;;5049302;28;20421;-92
2022/06/30 07:34:11;;;;;;;4.60;2.53;;;25.40;48.50;;;;;;5041063;28;20425;-92
2022/06/30 07:36:37;;;;;;;2.90;1.97;;;25.20;47.50;;;;;;5025275;28;20186;-93
2022/06/30 07:39:03;;;;;;;4.63;2.43;;;25.10;48.40;;;;;;5042313;28;20721;-92
2022/06/30 07:41:29;;;;;;;3.73;2.73;;;25.40;47.30;;;;;;5029298;28;20178;-91
2022/06/30 07:43:55;;;;;;;4.60;2.23;;;24.90;48.50;;;;;;5030275;28;20494;-92
2022/06/30 07:46:21;;;;;;;5.03;2.53;;;24.50;50.60;;;;;;5027048;28;20418;-92
2022/06/30 07:48:49;;;;;;;6.07;2.70;;;24.50;51.30;;;;;;5027796;28;20182;-92
2022/06/30 07:51:18;;;;;;;6.33;2.70;;;24.50;51.30;;;;;;5047717;28;20170;-91
2022/06/30 07:53:45;;;;;;;5.77;3.07;;;24.30;51.40;;;;;;5048743;28;20501;-91
2022/06/30 07:56:10;;;;;;;5.30;2.33;;;23.90;51.90;;;;;;5047669;28;20464;-92
2022/06/30 07:58:36;;;;;;;10.07;3.27;;;23.70;53.00;;;;;;5038911;28;20418;-93
2022/06/30 08:01:02;;;;;;;40.00;14.93;;;23.70;53.40;;;;;;5050963;28;20196;-93
2022/06/30 08:03:28;;;;;;;7.30;3.70;;;23.60;53.50;;;;;;5057266;28;20206;-92
2022/06/30 08:05:54;;;;;;;7.80;3.50;;;23.40;54.30;;;;;;5057578;28;20425;-92
2022/06/30 08:08:20;;;;;;;7.13;3.90;;;23.20;54.60;;;;;;5056797;28;20445;-91
2022/06/30 08:10:45;;;;;;;6.60;3.20;;;23.20;54.60;;;;;;5057621;28;20178;-92
2022/06/30 08:13:11;;;;;;;4.63;3.47;;;23.10;55.20;;;;;;5056626;28;20182;-91
2022/06/30 08:15:38;;;;;;;7.77;2.97;;;22.90;55.50;;;;;;5041675;28;20179;-91
2022/06/30 08:18:05;;;;;;;4.40;3.20;;;23.20;55.80;;;;;;5025737;28;20556;-91
2022/06/30 08:20:31;;;;;;;8.10;3.40;;;23.20;55.60;;;;;;5018876;28;20424;-91
2022/06/30 08:22:57;;;;;;;5.10;2.73;;;23.30;55.00;;;;;;5020071;28;20476;-91
2022/06/30 08:25:23;;;;;;;4.37;2.80;;;23.40;54.60;;;;;;5027639;28;20209;-92
2022/06/30 08:27:49;;;;;;;7.10;3.50;;;23.20;54.40;;;;;;5022404;28;20441;-92
2022/06/30 08:30:14;;;;;;;7.00;3.50;;;23.00;54.80;;;;;;5029559;28;20441;-90
2022/06/30 08:32:40;;;;;;;9.13;3.43;;;23.00;55.20;;;;;;5021552;28;20189;-91
2022/06/30 08:35:07;;;;;;;8.43;3.60;;;23.00;56.40;;;;;;5019986;28;20185;-90
2022/06/30 08:37:32;;;;;;;7.83;4.50;;;23.00;55.50;;;;;;5023759;28;20437;-91
2022/06/30 08:42:44;;;;;;;3.63;2.77;;;23.30;55.80;;;;;;5031821;28;20290;-92
2022/06/30 08:45:17;;;;;;;5.87;3.03;;;23.50;54.20;;;;;;5034211;28;20479;-91
2022/06/30 08:47:43;;;;;;;7.80;3.50;;;23.70;53.40;;;;;;5038373;28;20465;-91
2022/06/30 08:50:10;;;;;;;6.50;3.83;;;23.50;53.50;;;;;;5032827;28;20405;-92
2022/06/30 08:52:45;;;;;;;7.70;3.67;;;23.40;54.00;;;;;;5039280;28;20464;-91
2022/06/30 08:55:16;;;;;;;6.27;3.37;;;23.50;54.60;;;;;;5053817;28;20421;-91
2022/06/30 08:57:44;;;;;;;6.57;3.83;;;23.50;54.90;;;;;;5022311;28;20445;-92
2022/06/30 09:00:11;;;;;;;6.13;4.90;;;23.80;53.80;;;;;;5036300;28;20504;-92
2022/06/30 09:02:37;;;;;;;6.40;4.50;;;23.70;54.60;;;;;;5017802;28;20512;-92
2022/06/30 09:05:03;;;;;;;4.90;3.33;;;23.70;54.40;;;;;;5019521;28;20421;-92
2022/06/30 09:07:30;;;;;;;5.00;3.10;;;23.70;54.60;;;;;;5022860;28;20445;-92
2022/06/30 09:09:56;;;;;;;10.97;3.37;;;23.90;54.50;;;;;;5022983;28;20417;-92
2022/06/30 09:12:22;;;;;;;5.30;3.60;;;24.20;54.10;;;;;;5026557;28;20905;-92
2022/06/30 09:14:48;;;;;;;6.53;3.23;;;24.10;53.20;;;;;;5037083;28;20433;-91
2022/06/30 09:17:21;;;;;;;4.03;2.77;;;24.40;52.60;;;;;;5035240;28;20196;-92
2022/06/30 09:19:53;;;;;;;4.77;2.83;;;24.90;50.00;;;;;;5019834;28;20430;-90
2022/06/30 09:22:22;;;;;;;8.57;3.03;;;25.10;49.40;;;;;;5018246;28;20484;-92
2022/06/30 09:25:04;;;;;;;5.60;3.00;;;25.00;50.40;;;;;;5018095;28;20536;-92
2022/06/30 09:27:34;;;;;;;3.37;2.23;;;24.80;51.00;;;;;;5018770;28;20945;-92
2022/06/30 09:30:12;;;;;;;5.33;2.73;;;25.00;50.20;;;;;;5024283;28;20410;-92
2022/06/30 09:32:48;;;;;;;4.00;2.60;;;25.30;49.70;;;;;;5024263;28;20444;-92
2022/06/30 09:35:14;;;;;;;5.37;3.07;;;25.60;48.50;;;;;;5018182;28;20420;-91
2022/06/30 09:37:40;;;;;;;6.33;3.23;;;25.60;48.20;;;;;;5017532;28;20465;-92
2022/06/30 09:40:08;;;;;;;7.63;3.10;;;25.20;48.90;;;;;;5034856;28;20440;-91
2022/06/30 09:42:42;;;;;;;7.83;2.80;;;25.00;49.40;;;;;;5034316;28;20409;-92
2022/06/30 09:45:31;;;;;;;3.60;2.30;;;25.00;49.00;;;;;;5038408;28;20410;-91
2022/06/30 09:47:57;;;;;;;3.93;2.33;;;25.30;48.50;;;;;;5035225;28;20466;-92
2022/06/30 09:50:23;;;;;;;4.60;2.10;;;25.20;48.60;;;;;;5035809;28;20444;-92
2022/06/30 09:53:15;;;;;;;3.57;2.00;;;25.30;48.30;;;;;;5022903;28;20464;-91
2022/06/30 09:55:46;;;;;;;5.57;2.60;;;25.40;47.40;;;;;;5030011;28;20413;-92
2022/06/30 09:58:36;;;;;;;5.77;2.93;;;25.30;47.50;;;;;;5033338;28;20528;-92
2022/06/30 10:01:03;;;;;;;4.93;2.60;;;25.10;47.90;;;;;;5024741;28;20429;-91
2022/06/30 10:03:29;;;;;;;6.77;2.87;;;25.30;47.60;;;;;;5038438;28;20465;-89
2022/06/30 10:06:10;;;;;;;3.63;2.63;;;25.30;47.90;;;;;;5035351;28;20461;-91
2022/06/30 10:08:39;;;;;;;6.10;2.80;;;25.20;48.20;;;;;;5044028;28;20189;-90
2022/06/30 10:11:06;;;;;;;5.77;3.07;;;25.20;48.00;;;;;;5055174;28;20475;-89
2022/06/30 10:13:39;;;;;;;3.60;2.40;;;25.10;48.40;;;;;;5039458;28;20437;-88
2022/06/30 10:16:06;;;;;;;4.47;2.37;;;25.50;47.00;;;;;;5038313;28;20420;-89
2022/06/30 10:18:41;;;;;;;8.07;3.30;;;26.00;45.50;;;;;;5038597;28;20504;-90
2022/06/30 10:21:10;;;;;;;6.80;3.10;;;26.50;44.20;;;;;;5038574;28;20417;-88
2022/06/30 10:23:37;;;;;;;5.90;3.50;;;25.90;45.40;;;;;;5033625;28;20465;-91
2022/06/30 10:26:04;;;;;;;3.60;2.50;;;25.30;47.10;;;;;;5022867;28;20421;-91
2022/06/30 10:28:30;;;;;;;6.20;2.43;;;25.10;48.20;;;;;;5026653;28;20425;-91
2022/06/30 10:31:22;;;;;;;4.17;2.07;;;25.10;48.40;;;;;;5018229;28;20432;-91
2022/06/30 10:34:05;;;;;;;5.87;2.10;;;25.00;47.80;;;;;;5033345;28;20511;-92
2022/06/30 10:36:38;;;;;;;3.30;2.20;;;24.90;48.00;;;;;;5046538;28;20441;-91
2022/06/30 10:39:10;;;;;;;5.27;2.17;;;25.20;46.00;;;;;;5014415;28;20425;-93
2022/06/30 10:41:47;;;;;;;2.93;1.90;;;25.20;46.60;;;;;;5031522;28;20426;-91
2022/06/30 10:44:33;;;;;;;4.10;2.57;;;24.80;46.80;;;;;;5022357;28;20489;-92
2022/06/30 10:47:02;;;;;;;4.40;2.30;;;24.40;48.00;;;;;;5016648;28;20459;-93
2022/06/30 10:49:28;;;;;;;4.30;2.67;;;24.40;49.90;;;;;;5017179;28;21026;-92
2022/06/30 10:52:18;;;;;;;6.37;2.20;;;24.30;50.00;;;;;;5016282;28;20475;-92
2022/06/30 10:54:47;;;;;;;4.30;2.30;;;24.10;50.00;;;;;;5015923;28;20415;-92
2022/06/30 10:57:13;;;;;;;5.77;2.33;;;23.90;50.40;;;;;;5016403;28;20448;-92
2022/06/30 10:59:43;;;;;;;5.57;2.30;;;23.90;50.10;;;;;;5018181;28;20440;-92
2022/06/30 11:02:11;;;;;;;2.57;1.50;;;23.60;49.50;;;;;;5018062;28;20436;-92
2022/06/30 11:04:38;;;;;;;5.37;1.80;;;23.60;50.10;;;;;;5035572;28;20530;-92
2022/06/30 11:07:08;;;;;;;2.63;1.83;;;23.60;50.40;;;;;;5029955;28;20517;-91
2022/06/30 11:10:00;;;;;;;5.50;1.87;;;23.70;50.70;;;;;;5034574;28;20956;-92
2022/06/30 11:12:32;;;;;;;4.53;1.53;;;23.70;50.50;;;;;;5028652;28;20433;-92
2022/06/30 11:14:59;;;;;;;2.87;1.70;;;23.80;50.90;;;;;;5049938;28;20502;-92
2022/06/30 11:17:27;;;;;;;2.90;1.70;;;23.70;51.10;;;;;;5036386;28;20429;-91
2022/06/30 11:20:13;;;;;;;7.80;2.00;;;23.70;50.90;;;;;;5036773;28;20445;-92
2022/06/30 11:22:40;;;;;;;2.33;1.50;;;23.70;50.50;;;;;;5036676;28;20465;-92
2022/06/30 11:27:17;;;;;;;3.37;1.87;;;23.70;50.40;;;;;;5026168;28;20418;-92
2022/06/30 11:28:05;;;;;;;2.83;2.00;;;23.60;50.00;;;;;;5019552;28;20429;-91
2022/06/30 11:30:34;;;;;;;4.43;1.50;;;23.60;51.00;;;;;;5016165;28;20441;-92
2022/06/30 11:33:00;;;;;;;4.27;1.60;;;23.80;51.50;;;;;;5016930;28;20423;-92
2022/06/30 11:35:30;;;;;;;5.60;1.73;;;24.00;51.30;;;;;;5012281;28;20456;-92
2022/06/30 11:37:56;;;;;;;2.80;1.77;;;24.30;50.60;;;;;;5031476;28;20507;-92
2022/06/30 11:40:22;;;;;;;9.03;2.20;;;24.30;50.80;;;;;;5031818;28;20438;-92
2022/06/30 11:42:53;;;;;;;4.43;1.80;;;24.20;50.60;;;;;;5015618;28;20419;-92
2022/06/30 11:45:23;;;;;;;2.93;2.10;;;24.00;51.40;;;;;;5016083;28;20449;-92
2022/06/30 11:47:59;;;;;;;3.63;2.57;;;24.00;51.50;;;;;;5031731;28;20464;-92
2022/06/30 11:50:26;;;;;;;6.60;2.60;;;24.00;51.60;;;;;;5033305;28;20414;-92
2022/06/30 11:52:53;;;;;;;5.00;2.30;;;23.90;51.90;;;;;;5036436;28;20822;-92
2022/06/30 11:55:24;;;;;;;3.30;1.67;;;23.80;51.70;;;;;;5031300;28;20426;-92
2022/06/30 11:57:49;;;;;;;4.40;2.07;;;23.70;51.60;;;;;;5031994;28;20832;-92
2022/06/30 12:00:24;;;;;;;2.10;1.40;;;23.70;51.50;;;;;;5034046;28;20417;-92
2022/06/30 12:02:51;;;;;;;5.13;2.00;;;23.60;51.50;;;;;;5036936;28;20178;-92
2022/06/30 12:05:22;;;;;;;5.77;1.87;;;23.60;51.30;;;;;;5024060;28;20501;-92
2022/06/30 12:07:48;;;;;;;6.93;1.80;;;23.70;50.90;;;;;;5022028;28;20473;-92
2022/06/30 12:10:17;;;;;;;6.40;2.00;;;23.80;50.50;;;;;;5020492;28;20414;-92
2022/06/30 12:12:43;;;;;;;3.57;1.40;;;24.00;49.90;;;;;;5032083;28;20426;-91
2022/06/30 12:15:14;;;;;;;4.80;1.97;;;23.90;48.90;;;;;;5015827;28;20465;-92
2022/06/30 12:17:47;;;;;;;2.07;1.50;;;23.90;49.10;;;;;;5031884;28;20457;-91
2022/06/30 12:20:15;;;;;;;1.80;1.70;;;23.90;50.80;;;;;;5053255;28;20446;-88
2022/06/30 12:22:44;;;;;;;3.80;1.70;;;24.00;52.50;;;;;;5053530;28;20406;-89
2022/06/30 12:25:11;;;;;;;2.70;1.60;;;24.20;52.70;;;;;;5053657;28;20436;-89
2022/06/30 12:27:48;;;;;;;2.73;1.77;;;24.10;51.70;;;;;;5053137;28;20463;-91
2022/06/30 12:30:20;;;;;;;4.93;2.03;;;24.00;49.70;;;;;;5029516;28;20481;-91
2022/06/30 12:32:54;;;;;;;3.80;2.27;;;23.80;49.10;;;;;;5032381;28;20423;-92
2022/06/30 12:35:22;;;;;;;6.30;2.07;;;24.00;51.30;;;;;;5032393;28;20418;-92
2022/06/30 12:37:53;;;;;;;3.67;2.20;;;24.00;50.60;;;;;;5015100;28;20982;-92
2022/06/30 12:40:26;;;;;;;4.50;2.60;;;24.30;50.80;;;;;;5018400;28;20431;-91
2022/06/30 12:42:58;;;;;;;8.33;3.30;;;24.20;51.00;;;;;;5001808;28;20392;-92
2022/06/30 12:45:44;;;;;;;7.20;2.97;;;24.00;51.80;;;;;;5000693;28;20410;-91
2022/06/30 12:48:11;;;;;;;4.47;2.73;;;24.20;52.40;;;;;;5004975;28;20486;-92
2022/06/30 12:50:39;;;;;;;7.13;3.23;;;24.20;52.50;;;;;;4998957;28;20444;-92
2022/06/30 12:53:16;;;;;;;7.37;2.83;;;24.30;52.60;;;;;;4998416;28;21003;-90
2022/06/30 12:56:13;;;;;;;6.20;3.20;;;24.30;52.40;;;;;;5030610;28;20514;-91
2022/06/30 12:59:02;;;;;;;6.43;2.60;;;24.10;51.70;;;;;;5045888;28;20514;-94
2022/06/30 13:01:30;;;;;;;7.43;2.77;;;23.80;51.40;;;;;;5035312;28;20424;-90
2022/06/30 13:04:19;;;;;;;5.60;2.80;;;23.70;51.50;;;;;;5042284;28;20490;-92
2022/06/30 13:06:47;;;;;;;6.33;2.43;;;23.70;50.50;;;;;;5034975;28;20445;-92
2022/06/30 13:09:16;;;;;;;5.67;2.70;;;23.40;50.40;;;;;;5034398;28;20979;-92